sensor_id;sensor_type;location;lat;lon;timestamp;pressure;altitude;pressure_sealevel;temperature;humidity
28027;BME280;15344;52.342;-1.290;2023-06-10T00:00:05;100178.10;;;15.19;100.00
28027;BME280;15344;52.342;-1.290;2023-06-10T00:02:30;100181.73;;;15.00;100.00
28027;BME280;15344;52.342;-1.290;2023-06-10T00:04:55;100178.88;;;14.70;100.00
28027;BME280;15344;52.342;-1.290;2023-06-10T00:07:21;100190.68;;;13.88;100.00
28027;BME280;15344;52.342;-1.290;2023-06-10T00:09:47;100181.18;;;15.75;100.00
28027;BME280;15344;52.342;-1.290;2023-06-10T00:12:12;100186.07;;;16.00;100.00
28027;BME280;15344;52.342;-1.290;2023-06-10T00:14:39;100181.93;;;16.17;100.00
28027;BME280;15344;52.342;-1.290;2023-06-10T00:17:04;100181.92;;;16.07;100.00
28027;BME280;15344;52.342;-1.290;2023-06-10T00:19:28;100188.18;;;15.36;100.00
28027;BME280;15344;52.342;-1.290;2023-06-10T00:21:54;100185.79;;;15.52;100.00
28027;BME280;15344;52.342;-1.290;2023-06-10T00:24:20;100184.09;;;15.46;100.00
28027;BME280;15344;52.342;-1.290;2023-06-10T00:26:45;100186.80;;;15.94;100.00
28027;BME280;15344;52.342;-1.290;2023-06-10T00:29:11;100187.09;;;16.24;100.00
28027;BME280;15344;52.342;-1.290;2023-06-10T00:31:37;100181.02;;;16.93;100.00
28027;BME280;15344;52.342;-1.290;2023-06-10T00:34:01;100177.37;;;16.11;100.00
28027;BME280;15344;52.342;-1.290;2023-06-10T00:36:27;100173.41;;;16.15;100.00
28027;BME280;15344;52.342;-1.290;2023-06-10T00:38:53;100176.65;;;16.14;100.00
28027;BME280;15344;52.342;-1.290;2023-06-10T00:41:18;100178.67;;;16.83;100.00
28027;BME280;15344;52.342;-1.290;2023-06-10T00:43:43;100174.42;;;16.31;100.00
28027;BME280;15344;52.342;-1.290;2023-06-10T00:46:09;100167.21;;;15.59;100.00
28027;BME280;15344;52.342;-1.290;2023-06-10T00:48:34;100172.34;;;14.65;100.00
28027;BME280;15344;52.342;-1.290;2023-06-10T00:51:00;100174.74;;;14.62;100.00
28027;BME280;15344;52.342;-1.290;2023-06-10T00:53:26;100171.29;;;15.31;100.00
28027;BME280;15344;52.342;-1.290;2023-06-10T00:55:51;100170.65;;;14.93;100.00
28027;BME280;15344;52.342;-1.290;2023-06-10T00:58:16;100172.50;;;15.14;100.00
28027;BME280;15344;52.342;-1.290;2023-06-10T01:00:41;100172.98;;;14.82;100.00
28027;BME280;15344;52.342;-1.290;2023-06-10T01:03:07;100170.17;;;14.91;100.00
28027;BME280;15344;52.342;-1.290;2023-06-10T01:05:32;100161.94;;;14.69;100.00
28027;BME280;15344;52.342;-1.290;2023-06-10T01:08:03;100160.05;;;15.53;100.00
28027;BME280;15344;52.342;-1.290;2023-06-10T01:10:28;100158.60;;;14.75;100.00
28027;BME280;15344;52.342;-1.290;2023-06-10T01:12:55;100160.33;;;14.62;100.00
28027;BME280;15344;52.342;-1.290;2023-06-10T01:15:15;100160.15;;;15.05;100.00
28027;BME280;15344;52.342;-1.290;2023-06-10T01:20:06;100155.90;;;15.75;100.00
28027;BME280;15344;52.342;-1.290;2023-06-10T01:22:31;100158.57;;;15.32;100.00
28027;BME280;15344;52.342;-1.290;2023-06-10T01:24:56;100157.72;;;14.35;100.00
28027;BME280;15344;52.342;-1.290;2023-06-10T01:27:22;100156.95;;;15.08;100.00
28027;BME280;15344;52.342;-1.290;2023-06-10T01:29:53;100151.67;;;14.62;100.00
28027;BME280;15344;52.342;-1.290;2023-06-10T01:32:18;100151.50;;;14.73;100.00
28027;BME280;15344;52.342;-1.290;2023-06-10T01:34:39;100148.47;;;15.19;100.00
28027;BME280;15344;52.342;-1.290;2023-06-10T01:37:04;100148.75;;;14.87;100.00
28027;BME280;15344;52.342;-1.290;2023-06-10T01:39:32;100143.24;;;15.16;100.00
28027;BME280;15344;52.342;-1.290;2023-06-10T01:41:56;100141.42;;;13.85;100.00
28027;BME280;15344;52.342;-1.290;2023-06-10T01:44:22;100133.90;;;15.48;100.00
28027;BME280;15344;52.342;-1.290;2023-06-10T01:46:46;100128.79;;;15.11;100.00
28027;BME280;15344;52.342;-1.290;2023-06-10T01:49:12;100127.95;;;14.19;100.00
28027;BME280;15344;52.342;-1.290;2023-06-10T01:51:38;100126.24;;;15.37;100.00
28027;BME280;15344;52.342;-1.290;2023-06-10T01:54:04;100124.26;;;15.21;100.00
28027;BME280;15344;52.342;-1.290;2023-06-10T01:56:29;100122.23;;;14.90;100.00
28027;BME280;15344;52.342;-1.290;2023-06-10T01:58:54;100120.23;;;15.30;100.00
28027;BME280;15344;52.342;-1.290;2023-06-10T02:01:20;100119.38;;;15.44;100.00
28027;BME280;15344;52.342;-1.290;2023-06-10T02:03:46;100117.80;;;14.64;100.00
28027;BME280;15344;52.342;-1.290;2023-06-10T02:06:12;100117.21;;;14.14;100.00
28027;BME280;15344;52.342;-1.290;2023-06-10T02:08:37;100115.54;;;13.97;100.00
28027;BME280;15344;52.342;-1.290;2023-06-10T02:11:02;100113.61;;;14.60;100.00
28027;BME280;15344;52.342;-1.290;2023-06-10T02:13:28;100111.50;;;13.63;100.00
28027;BME280;15344;52.342;-1.290;2023-06-10T02:15:53;100112.00;;;13.37;100.00
28027;BME280;15344;52.342;-1.290;2023-06-10T02:18:19;100112.00;;;13.87;100.00
28027;BME280;15344;52.342;-1.290;2023-06-10T02:20:44;100111.87;;;13.43;100.00
28027;BME280;15344;52.342;-1.290;2023-06-10T02:23:09;100103.02;;;15.86;100.00
28027;BME280;15344;52.342;-1.290;2023-06-10T02:25:35;100105.75;;;14.70;100.00
28027;BME280;15344;52.342;-1.290;2023-06-10T02:28:00;100106.53;;;16.04;100.00
28027;BME280;15344;52.342;-1.290;2023-06-10T02:30:25;100104.60;;;15.59;100.00
28027;BME280;15344;52.342;-1.290;2023-06-10T02:32:51;100104.99;;;15.74;100.00
28027;BME280;15344;52.342;-1.290;2023-06-10T02:35:17;100108.15;;;15.51;100.00
28027;BME280;15344;52.342;-1.290;2023-06-10T02:37:43;100108.16;;;16.59;100.00
28027;BME280;15344;52.342;-1.290;2023-06-10T02:40:09;100106.36;;;16.00;100.00
28027;BME280;15344;52.342;-1.290;2023-06-10T02:42:34;100105.80;;;15.83;99.65
28027;BME280;15344;52.342;-1.290;2023-06-10T02:44:59;100102.71;;;15.28;100.00
28027;BME280;15344;52.342;-1.290;2023-06-10T02:47:24;100108.10;;;15.87;100.00
28027;BME280;15344;52.342;-1.290;2023-06-10T02:49:50;100107.86;;;14.74;100.00
28027;BME280;15344;52.342;-1.290;2023-06-10T02:52:17;100107.36;;;15.24;100.00
28027;BME280;15344;52.342;-1.290;2023-06-10T02:54:42;100107.00;;;15.38;100.00
28027;BME280;15344;52.342;-1.290;2023-06-10T02:57:07;100102.85;;;15.86;100.00
28027;BME280;15344;52.342;-1.290;2023-06-10T02:59:32;100099.28;;;15.16;100.00
28027;BME280;15344;52.342;-1.290;2023-06-10T03:01:58;100092.83;;;13.80;100.00
28027;BME280;15344;52.342;-1.290;2023-06-10T03:04:23;100094.97;;;13.55;100.00
28027;BME280;15344;52.342;-1.290;2023-06-10T03:06:49;100095.20;;;14.41;100.00
28027;BME280;15344;52.342;-1.290;2023-06-10T03:09:15;100096.58;;;14.00;100.00
28027;BME280;15344;52.342;-1.290;2023-06-10T03:11:40;100095.90;;;13.73;100.00
28027;BME280;15344;52.342;-1.290;2023-06-10T03:14:06;100095.61;;;13.91;100.00
28027;BME280;15344;52.342;-1.290;2023-06-10T03:16:32;100092.67;;;13.72;100.00
28027;BME280;15344;52.342;-1.290;2023-06-10T03:18:57;100095.67;;;14.11;100.00
28027;BME280;15344;52.342;-1.290;2023-06-10T03:21:22;100095.20;;;15.08;100.00
28027;BME280;15344;52.342;-1.290;2023-06-10T03:23:48;100094.92;;;14.31;100.00
28027;BME280;15344;52.342;-1.290;2023-06-10T03:26:13;100093.20;;;14.58;100.00
28027;BME280;15344;52.342;-1.290;2023-06-10T03:28:39;100089.92;;;14.96;100.00
28027;BME280;15344;52.342;-1.290;2023-06-10T03:31:04;100089.15;;;14.88;100.00
28027;BME280;15344;52.342;-1.290;2023-06-10T03:33:30;100090.97;;;14.45;100.00
28027;BME280;15344;52.342;-1.290;2023-06-10T03:35:55;100094.53;;;13.44;100.00
28027;BME280;15344;52.342;-1.290;2023-06-10T03:38:20;100091.97;;;13.73;100.00
28027;BME280;15344;52.342;-1.290;2023-06-10T03:40:46;100090.64;;;13.30;100.00
28027;BME280;15344;52.342;-1.290;2023-06-10T03:43:11;100095.94;;;13.89;100.00
28027;BME280;15344;52.342;-1.290;2023-06-10T03:45:37;100088.27;;;13.92;100.00
28027;BME280;15344;52.342;-1.290;2023-06-10T03:48:02;100086.51;;;14.25;100.00
28027;BME280;15344;52.342;-1.290;2023-06-10T03:50:28;100082.25;;;15.18;100.00
28027;BME280;15344;52.342;-1.290;2023-06-10T03:52:53;100082.69;;;15.17;100.00
28027;BME280;15344;52.342;-1.290;2023-06-10T03:55:19;100076.30;;;15.79;100.00
28027;BME280;15344;52.342;-1.290;2023-06-10T03:57:44;100078.31;;;14.67;100.00
28027;BME280;15344;52.342;-1.290;2023-06-10T04:00:10;100081.31;;;13.87;100.00
28027;BME280;15344;52.342;-1.290;2023-06-10T04:02:35;100081.93;;;13.80;100.00
28027;BME280;15344;52.342;-1.290;2023-06-10T04:05:00;100081.88;;;14.54;100.00
28027;BME280;15344;52.342;-1.290;2023-06-10T04:07:26;100081.95;;;13.16;100.00
28027;BME280;15344;52.342;-1.290;2023-06-10T04:09:51;100091.22;;;14.63;100.00
28027;BME280;15344;52.342;-1.290;2023-06-10T04:12:17;100094.29;;;15.62;100.00
28027;BME280;15344;52.342;-1.290;2023-06-10T04:14:42;100094.63;;;14.61;100.00
28027;BME280;15344;52.342;-1.290;2023-06-10T04:17:09;100097.39;;;14.75;100.00
28027;BME280;15344;52.342;-1.290;2023-06-10T04:19:33;100097.42;;;15.48;100.00
28027;BME280;15344;52.342;-1.290;2023-06-10T04:22:00;100095.48;;;14.18;100.00
28027;BME280;15344;52.342;-1.290;2023-06-10T04:24:24;100098.87;;;15.14;100.00
28027;BME280;15344;52.342;-1.290;2023-06-10T04:26:49;100095.60;;;15.09;100.00
28027;BME280;15344;52.342;-1.290;2023-06-10T04:29:14;100097.15;;;14.81;100.00
28027;BME280;15344;52.342;-1.290;2023-06-10T04:31:40;100100.92;;;14.09;100.00
28027;BME280;15344;52.342;-1.290;2023-06-10T04:34:05;100096.14;;;14.18;100.00
28027;BME280;15344;52.342;-1.290;2023-06-10T04:36:30;100100.53;;;14.58;100.00
28027;BME280;15344;52.342;-1.290;2023-06-10T04:38:55;100096.31;;;14.78;100.00
28027;BME280;15344;52.342;-1.290;2023-06-10T04:41:21;100091.18;;;14.37;100.00
28027;BME280;15344;52.342;-1.290;2023-06-10T04:43:47;100089.54;;;14.39;100.00
28027;BME280;15344;52.342;-1.290;2023-06-10T04:46:13;100085.93;;;14.92;100.00
28027;BME280;15344;52.342;-1.290;2023-06-10T04:48:38;100085.29;;;13.47;100.00
28027;BME280;15344;52.342;-1.290;2023-06-10T04:51:03;100085.75;;;14.47;100.00
28027;BME280;15344;52.342;-1.290;2023-06-10T04:53:29;100084.84;;;14.96;100.00
28027;BME280;15344;52.342;-1.290;2023-06-10T04:55:54;100079.23;;;15.55;100.00
28027;BME280;15344;52.342;-1.290;2023-06-10T04:58:20;100083.84;;;13.95;100.00
28027;BME280;15344;52.342;-1.290;2023-06-10T05:00:45;100077.91;;;15.12;100.00
28027;BME280;15344;52.342;-1.290;2023-06-10T05:03:11;100081.41;;;14.76;100.00
28027;BME280;15344;52.342;-1.290;2023-06-10T05:05:37;100079.52;;;14.59;100.00
28027;BME280;15344;52.342;-1.290;2023-06-10T05:08:02;100078.87;;;14.89;100.00
28027;BME280;15344;52.342;-1.290;2023-06-10T05:10:27;100078.12;;;13.28;100.00
28027;BME280;15344;52.342;-1.290;2023-06-10T05:12:53;100075.02;;;15.76;100.00
28027;BME280;15344;52.342;-1.290;2023-06-10T05:15:18;100078.75;;;14.19;100.00
28027;BME280;15344;52.342;-1.290;2023-06-10T05:17:43;100077.87;;;15.25;100.00
28027;BME280;15344;52.342;-1.290;2023-06-10T05:20:10;100078.08;;;15.42;100.00
28027;BME280;15344;52.342;-1.290;2023-06-10T05:22:34;100075.88;;;15.87;100.00
28027;BME280;15344;52.342;-1.290;2023-06-10T05:24:59;100076.24;;;14.96;100.00
28027;BME280;15344;52.342;-1.290;2023-06-10T05:27:24;100078.75;;;15.57;100.00
28027;BME280;15344;52.342;-1.290;2023-06-10T05:29:50;100076.13;;;14.83;100.00
28027;BME280;15344;52.342;-1.290;2023-06-10T05:32:15;100080.14;;;15.42;100.00
28027;BME280;15344;52.342;-1.290;2023-06-10T05:34:41;100079.27;;;15.16;100.00
28027;BME280;15344;52.342;-1.290;2023-06-10T05:37:06;100084.62;;;16.55;100.00
28027;BME280;15344;52.342;-1.290;2023-06-10T05:39:31;100082.37;;;15.11;100.00
28027;BME280;15344;52.342;-1.290;2023-06-10T05:41:57;100084.62;;;16.06;100.00
28027;BME280;15344;52.342;-1.290;2023-06-10T05:44:22;100086.20;;;16.42;100.00
28027;BME280;15344;52.342;-1.290;2023-06-10T05:46:48;100082.06;;;17.24;100.00
28027;BME280;15344;52.342;-1.290;2023-06-10T05:49:13;100082.81;;;15.55;100.00
28027;BME280;15344;52.342;-1.290;2023-06-10T05:51:39;100084.90;;;15.74;100.00
28027;BME280;15344;52.342;-1.290;2023-06-10T05:54:04;100089.10;;;17.20;100.00
28027;BME280;15344;52.342;-1.290;2023-06-10T05:56:30;100088.48;;;16.51;100.00
28027;BME280;15344;52.342;-1.290;2023-06-10T05:58:56;100084.39;;;16.50;100.00
28027;BME280;15344;52.342;-1.290;2023-06-10T06:01:21;100081.11;;;15.87;100.00
28027;BME280;15344;52.342;-1.290;2023-06-10T06:03:47;100079.50;;;15.67;100.00
28027;BME280;15344;52.342;-1.290;2023-06-10T06:06:12;100081.02;;;15.81;100.00
28027;BME280;15344;52.342;-1.290;2023-06-10T06:08:38;100089.89;;;16.88;100.00
28027;BME280;15344;52.342;-1.290;2023-06-10T06:11:03;100086.26;;;16.61;100.00
28027;BME280;15344;52.342;-1.290;2023-06-10T06:13:29;100087.42;;;16.41;100.00
28027;BME280;15344;52.342;-1.290;2023-06-10T06:15:54;100084.34;;;15.90;100.00
28027;BME280;15344;52.342;-1.290;2023-06-10T06:18:20;100085.00;;;17.12;100.00
28027;BME280;15344;52.342;-1.290;2023-06-10T06:20:45;100084.26;;;15.44;100.00
28027;BME280;15344;52.342;-1.290;2023-06-10T06:23:10;100084.31;;;15.95;100.00
28027;BME280;15344;52.342;-1.290;2023-06-10T06:25:36;100076.68;;;16.71;100.00
28027;BME280;15344;52.342;-1.290;2023-06-10T06:28:01;100079.24;;;17.22;100.00
28027;BME280;15344;52.342;-1.290;2023-06-10T06:30:26;100082.94;;;16.96;100.00
28027;BME280;15344;52.342;-1.290;2023-06-10T06:32:52;100083.68;;;16.27;100.00
28027;BME280;15344;52.342;-1.290;2023-06-10T06:35:17;100078.69;;;17.93;100.00
28027;BME280;15344;52.342;-1.290;2023-06-10T06:37:42;100083.70;;;16.31;100.00
28027;BME280;15344;52.342;-1.290;2023-06-10T06:40:08;100075.46;;;17.73;100.00
28027;BME280;15344;52.342;-1.290;2023-06-10T06:42:33;100076.51;;;18.35;100.00
28027;BME280;15344;52.342;-1.290;2023-06-10T06:44:58;100076.12;;;18.32;100.00
28027;BME280;15344;52.342;-1.290;2023-06-10T06:47:24;100072.21;;;18.75;100.00
28027;BME280;15344;52.342;-1.290;2023-06-10T06:49:49;100073.04;;;18.38;100.00
28027;BME280;15344;52.342;-1.290;2023-06-10T06:52:15;100072.77;;;19.66;100.00
28027;BME280;15344;52.342;-1.290;2023-06-10T06:54:40;100070.88;;;19.30;100.00
28027;BME280;15344;52.342;-1.290;2023-06-10T06:57:06;100066.82;;;18.40;100.00
28027;BME280;15344;52.342;-1.290;2023-06-10T06:59:31;100069.89;;;20.70;100.00
28027;BME280;15344;52.342;-1.290;2023-06-10T07:01:56;100066.53;;;19.90;95.88
28027;BME280;15344;52.342;-1.290;2023-06-10T07:04:22;100063.72;;;20.31;100.00
28027;BME280;15344;52.342;-1.290;2023-06-10T07:06:48;100071.93;;;21.31;96.51
28027;BME280;15344;52.342;-1.290;2023-06-10T07:09:13;100073.33;;;21.01;90.82
28027;BME280;15344;52.342;-1.290;2023-06-10T07:11:39;100067.80;;;21.14;97.36
28027;BME280;15344;52.342;-1.290;2023-06-10T07:14:04;100068.24;;;21.46;97.47
28027;BME280;15344;52.342;-1.290;2023-06-10T07:16:29;100062.66;;;21.31;87.81
28027;BME280;15344;52.342;-1.290;2023-06-10T07:18:55;100066.41;;;22.71;89.39
28027;BME280;15344;52.342;-1.290;2023-06-10T07:21:21;100064.53;;;24.25;89.10
28027;BME280;15344;52.342;-1.290;2023-06-10T07:23:46;100064.02;;;24.71;81.32
28027;BME280;15344;52.342;-1.290;2023-06-10T07:26:12;100066.14;;;23.63;86.19
28027;BME280;15344;52.342;-1.290;2023-06-10T07:28:38;100065.05;;;24.07;87.72
28027;BME280;15344;52.342;-1.290;2023-06-10T07:31:03;100065.14;;;24.13;81.19
28027;BME280;15344;52.342;-1.290;2023-06-10T07:33:29;100071.59;;;25.40;82.05
28027;BME280;15344;52.342;-1.290;2023-06-10T07:35:54;100077.06;;;24.96;73.80
28027;BME280;15344;52.342;-1.290;2023-06-10T07:38:19;100080.15;;;24.24;75.86
28027;BME280;15344;52.342;-1.290;2023-06-10T07:40:45;100088.74;;;25.05;71.16
28027;BME280;15344;52.342;-1.290;2023-06-10T07:43:10;100082.59;;;26.44;65.78
28027;BME280;15344;52.342;-1.290;2023-06-10T07:45:36;100078.86;;;26.84;67.67
28027;BME280;15344;52.342;-1.290;2023-06-10T07:48:01;100074.32;;;25.69;66.28
28027;BME280;15344;52.342;-1.290;2023-06-10T07:50:26;100073.52;;;27.06;62.30
28027;BME280;15344;52.342;-1.290;2023-06-10T07:52:51;100073.97;;;26.81;64.81
28027;BME280;15344;52.342;-1.290;2023-06-10T07:55:17;100080.09;;;28.08;65.89
28027;BME280;15344;52.342;-1.290;2023-06-10T07:57:42;100085.54;;;28.06;64.09
28027;BME280;15344;52.342;-1.290;2023-06-10T08:00:09;100085.07;;;27.54;58.01
28027;BME280;15344;52.342;-1.290;2023-06-10T08:02:33;100088.36;;;28.50;56.81
28027;BME280;15344;52.342;-1.290;2023-06-10T08:04:59;100082.77;;;27.62;59.25
28027;BME280;15344;52.342;-1.290;2023-06-10T08:07:25;100085.84;;;27.79;56.36
28027;BME280;15344;52.342;-1.290;2023-06-10T08:09:50;100088.80;;;28.28;68.43
28027;BME280;15344;52.342;-1.290;2023-06-10T08:12:15;100083.58;;;27.39;60.80
28027;BME280;15344;52.342;-1.290;2023-06-10T08:14:40;100088.12;;;28.85;58.32
28027;BME280;15344;52.342;-1.290;2023-06-10T08:17:06;100079.91;;;28.26;54.35
28027;BME280;15344;52.342;-1.290;2023-06-10T08:19:31;100086.50;;;29.02;56.10
28027;BME280;15344;52.342;-1.290;2023-06-10T08:21:57;100089.29;;;29.67;50.45
28027;BME280;15344;52.342;-1.290;2023-06-10T08:24:22;100090.42;;;28.95;52.57
28027;BME280;15344;52.342;-1.290;2023-06-10T08:26:48;100088.94;;;30.48;59.57
28027;BME280;15344;52.342;-1.290;2023-06-10T08:29:13;100089.36;;;26.56;52.86
28027;BME280;15344;52.342;-1.290;2023-06-10T08:31:41;100088.78;;;29.40;51.78
28027;BME280;15344;52.342;-1.290;2023-06-10T08:34:03;100084.38;;;30.26;57.05
28027;BME280;15344;52.342;-1.290;2023-06-10T08:36:28;100081.32;;;29.55;50.29
28027;BME280;15344;52.342;-1.290;2023-06-10T08:38:54;100081.33;;;30.30;53.29
28027;BME280;15344;52.342;-1.290;2023-06-10T08:41:21;100081.08;;;28.94;53.58
28027;BME280;15344;52.342;-1.290;2023-06-10T08:43:51;100084.19;;;29.89;50.78
28027;BME280;15344;52.342;-1.290;2023-06-10T08:46:11;100082.31;;;28.87;50.24
28027;BME280;15344;52.342;-1.290;2023-06-10T08:48:41;100079.00;;;30.95;48.88
28027;BME280;15344;52.342;-1.290;2023-06-10T08:51:04;100083.90;;;29.90;49.93
28027;BME280;15344;52.342;-1.290;2023-06-10T08:53:27;100081.09;;;29.97;51.55
28027;BME280;15344;52.342;-1.290;2023-06-10T08:55:52;100080.83;;;30.54;50.10
28027;BME280;15344;52.342;-1.290;2023-06-10T08:58:17;100081.81;;;30.94;46.23
28027;BME280;15344;52.342;-1.290;2023-06-10T09:00:43;100083.83;;;31.36;46.55
28027;BME280;15344;52.342;-1.290;2023-06-10T09:03:08;100082.82;;;29.43;46.11
28027;BME280;15344;52.342;-1.290;2023-06-10T09:05:34;100079.58;;;29.83;46.31
28027;BME280;15344;52.342;-1.290;2023-06-10T09:08:00;100079.70;;;30.14;47.11
28027;BME280;15344;52.342;-1.290;2023-06-10T09:10:24;100081.71;;;31.37;45.30
28027;BME280;15344;52.342;-1.290;2023-06-10T09:12:49;100073.48;;;32.30;44.33
28027;BME280;15344;52.342;-1.290;2023-06-10T09:15:15;100080.26;;;28.44;45.96
28027;BME280;15344;52.342;-1.290;2023-06-10T09:17:41;100080.13;;;30.74;50.48
28027;BME280;15344;52.342;-1.290;2023-06-10T09:20:07;100084.41;;;30.99;43.48
28027;BME280;15344;52.342;-1.290;2023-06-10T09:22:33;100083.26;;;30.73;47.17
28027;BME280;15344;52.342;-1.290;2023-06-10T09:25:03;100081.52;;;29.59;46.40
28027;BME280;15344;52.342;-1.290;2023-06-10T09:27:22;100086.32;;;29.10;47.53
28027;BME280;15344;52.342;-1.290;2023-06-10T09:29:52;100085.18;;;29.87;48.33
28027;BME280;15344;52.342;-1.290;2023-06-10T09:32:13;100080.34;;;30.17;45.60
28027;BME280;15344;52.342;-1.290;2023-06-10T09:34:39;100084.64;;;32.16;42.60
28027;BME280;15344;52.342;-1.290;2023-06-10T09:37:05;100077.19;;;29.63;45.70
28027;BME280;15344;52.342;-1.290;2023-06-10T09:39:30;100083.95;;;32.34;49.14
28027;BME280;15344;52.342;-1.290;2023-06-10T09:41:55;100089.12;;;32.39;42.57
28027;BME280;15344;52.342;-1.290;2023-06-10T09:44:21;100090.36;;;33.26;42.47
28027;BME280;15344;52.342;-1.290;2023-06-10T09:46:48;100086.47;;;33.22;41.10
28027;BME280;15344;52.342;-1.290;2023-06-10T09:49:12;100079.47;;;32.14;42.02
28027;BME280;15344;52.342;-1.290;2023-06-10T09:51:37;100087.00;;;33.55;42.21
28027;BME280;15344;52.342;-1.290;2023-06-10T09:54:04;100081.07;;;32.85;41.01
28027;BME280;15344;52.342;-1.290;2023-06-10T09:56:33;100073.33;;;32.74;41.63
28027;BME280;15344;52.342;-1.290;2023-06-10T09:58:54;100069.03;;;32.16;43.38
28027;BME280;15344;52.342;-1.290;2023-06-10T10:01:20;100070.28;;;32.92;43.62
28027;BME280;15344;52.342;-1.290;2023-06-10T10:03:46;100071.41;;;34.30;39.37
28027;BME280;15344;52.342;-1.290;2023-06-10T10:06:12;100066.03;;;34.57;38.62
28027;BME280;15344;52.342;-1.290;2023-06-10T10:08:36;100068.65;;;32.33;43.43
28027;BME280;15344;52.342;-1.290;2023-06-10T10:11:02;100061.01;;;31.48;41.21
28027;BME280;15344;52.342;-1.290;2023-06-10T10:13:28;100065.29;;;32.73;43.71
28027;BME280;15344;52.342;-1.290;2023-06-10T10:15:53;100065.82;;;33.35;41.55
28027;BME280;15344;52.342;-1.290;2023-06-10T10:18:20;100063.20;;;30.72;43.01
28027;BME280;15344;52.342;-1.290;2023-06-10T10:20:47;100068.57;;;31.57;46.74
28027;BME280;15344;52.342;-1.290;2023-06-10T10:23:11;100070.88;;;31.76;43.29
28027;BME280;15344;52.342;-1.290;2023-06-10T10:25:38;100073.46;;;31.24;49.46
28027;BME280;15344;52.342;-1.290;2023-06-10T10:28:08;100068.09;;;32.98;46.36
28027;BME280;15344;52.342;-1.290;2023-06-10T10:30:28;100065.31;;;32.08;45.63
28027;BME280;15344;52.342;-1.290;2023-06-10T10:32:57;100068.70;;;33.76;47.81
28027;BME280;15344;52.342;-1.290;2023-06-10T10:35:18;100068.24;;;32.43;44.79
28027;BME280;15344;52.342;-1.290;2023-06-10T10:37:42;100065.59;;;32.85;44.44
28027;BME280;15344;52.342;-1.290;2023-06-10T10:40:08;100056.83;;;31.76;44.45
28027;BME280;15344;52.342;-1.290;2023-06-10T10:42:33;100060.82;;;32.70;42.97
28027;BME280;15344;52.342;-1.290;2023-06-10T10:44:58;100058.77;;;34.11;47.42
28027;BME280;15344;52.342;-1.290;2023-06-10T10:47:27;100059.49;;;33.60;41.80
28027;BME280;15344;52.342;-1.290;2023-06-10T10:49:51;100059.48;;;32.53;43.94
28027;BME280;15344;52.342;-1.290;2023-06-10T10:52:14;100059.51;;;34.10;45.23
28027;BME280;15344;52.342;-1.290;2023-06-10T10:54:44;100062.05;;;32.86;42.54
28027;BME280;15344;52.342;-1.290;2023-06-10T10:57:12;100057.18;;;32.80;44.43
28027;BME280;15344;52.342;-1.290;2023-06-10T11:01:56;100054.52;;;32.96;42.96
28027;BME280;15344;52.342;-1.290;2023-06-10T11:04:21;100051.67;;;32.04;44.11
28027;BME280;15344;52.342;-1.290;2023-06-10T11:06:52;100051.69;;;31.39;46.73
28027;BME280;15344;52.342;-1.290;2023-06-10T11:14:07;100043.38;;;31.79;43.61
28027;BME280;15344;52.342;-1.290;2023-06-10T11:16:29;100040.24;;;31.31;44.05
28027;BME280;15344;52.342;-1.290;2023-06-10T11:18:54;100037.27;;;31.67;44.19
28027;BME280;15344;52.342;-1.290;2023-06-10T11:21:20;100037.94;;;31.94;42.78
28027;BME280;15344;52.342;-1.290;2023-06-10T11:23:45;100032.31;;;31.88;47.25
28027;BME280;15344;52.342;-1.290;2023-06-10T11:26:13;100034.38;;;31.98;44.88
28027;BME280;15344;52.342;-1.290;2023-06-10T11:28:37;100025.25;;;31.64;45.55
28027;BME280;15344;52.342;-1.290;2023-06-10T11:31:02;100028.36;;;32.09;43.15
28027;BME280;15344;52.342;-1.290;2023-06-10T11:33:27;100024.74;;;31.55;45.44
28027;BME280;15344;52.342;-1.290;2023-06-10T11:35:53;100022.92;;;32.09;42.86
28027;BME280;15344;52.342;-1.290;2023-06-10T11:38:18;100019.26;;;32.15;43.77
28027;BME280;15344;52.342;-1.290;2023-06-10T11:40:48;100017.36;;;31.75;45.42
28027;BME280;15344;52.342;-1.290;2023-06-10T11:43:09;100016.16;;;30.36;45.83
28027;BME280;15344;52.342;-1.290;2023-06-10T11:45:35;100011.97;;;31.15;44.20
28027;BME280;15344;52.342;-1.290;2023-06-10T11:48:01;100019.33;;;31.20;44.89
28027;BME280;15344;52.342;-1.290;2023-06-10T11:50:30;100015.90;;;31.23;48.37
28027;BME280;15344;52.342;-1.290;2023-06-10T11:52:51;100014.07;;;29.78;49.17
28027;BME280;15344;52.342;-1.290;2023-06-10T11:55:17;100016.18;;;31.41;48.30
28027;BME280;15344;52.342;-1.290;2023-06-10T11:57:42;100014.59;;;31.65;44.96
28027;BME280;15344;52.342;-1.290;2023-06-10T12:00:09;100019.36;;;31.39;46.89
28027;BME280;15344;52.342;-1.290;2023-06-10T12:02:33;100015.86;;;31.81;45.12
28027;BME280;15344;52.342;-1.290;2023-06-10T12:07:24;100017.19;;;30.59;46.90
28027;BME280;15344;52.342;-1.290;2023-06-10T12:09:58;100012.94;;;30.36;49.05
28027;BME280;15344;52.342;-1.290;2023-06-10T12:12:16;100014.61;;;31.52;45.86
28027;BME280;15344;52.342;-1.290;2023-06-10T12:17:06;100006.70;;;29.97;49.42
28027;BME280;15344;52.342;-1.290;2023-06-10T12:19:31;100007.99;;;30.60;48.05
28027;BME280;15344;52.342;-1.290;2023-06-10T12:21:56;100004.61;;;30.05;48.88
28027;BME280;15344;52.342;-1.290;2023-06-10T12:24:22;100003.74;;;30.06;49.17
28027;BME280;15344;52.342;-1.290;2023-06-10T12:26:48;100005.26;;;30.97;48.63
28027;BME280;15344;52.342;-1.290;2023-06-10T12:29:18;99999.24;;;31.45;47.09
28027;BME280;15344;52.342;-1.290;2023-06-10T12:34:08;99994.39;;;31.59;46.03
28027;BME280;15344;52.342;-1.290;2023-06-10T12:36:30;99996.48;;;30.60;46.75
28027;BME280;15344;52.342;-1.290;2023-06-10T12:39:02;99992.50;;;29.96;47.22
28027;BME280;15344;52.342;-1.290;2023-06-10T12:41:21;99993.83;;;30.70;48.39